createdAt,value
2018-09-12T00:00:29.513Z,96124.3
2018-09-12T00:05:27.603Z,96021.6
2018-09-12T00:10:24.991Z,96021.4
2018-09-12T00:15:22.300Z,96008
2018-09-12T00:20:19.498Z,96006.3
2018-09-12T00:25:17.027Z,96009.4
2018-09-12T00:30:14.351Z,96124.3
2018-09-12T00:35:12.278Z,96126.4
2018-09-12T00:40:10.420Z,96126.9
2018-09-12T00:45:08.136Z,96020.3
2018-09-12T00:50:05.549Z,96137.2
2018-09-12T00:55:03.173Z,96025.5
2018-09-12T01:00:00.611Z,96036.3
2018-09-12T01:04:58.257Z,96034.6
2018-09-12T01:09:55.632Z,96045.4
2018-09-12T01:14:53.508Z,96045.5
2018-09-12T01:19:51.622Z,96152.2
2018-09-12T01:24:49.170Z,96048.6
2018-09-12T01:29:46.613Z,96038.1
2018-09-12T01:34:44.196Z,96043.5
2018-09-12T01:39:41.819Z,96041
2018-09-12T01:44:38.901Z,96032.2
2018-09-12T01:49:36.341Z,96041.5
2018-09-12T01:54:34.328Z,96046.6
2018-09-12T01:59:32.784Z,96161.4
2018-09-12T02:04:30.558Z,96044.6
2018-09-12T02:09:28.174Z,96040.2
2018-09-12T02:14:26.153Z,96156.7
2018-09-12T02:19:23.464Z,96299.3
2018-09-12T02:24:21.249Z,96040.7
2018-09-12T02:29:18.791Z,96186.7
2018-09-12T02:34:16.468Z,96048.1
2018-09-12T02:39:14.419Z,96151.3
2018-09-12T02:44:11.461Z,96283.9
2018-09-12T02:49:08.613Z,96036
2018-09-12T02:54:06.139Z,96282.1
2018-09-12T02:59:03.917Z,96295.8
2018-09-12T03:04:01.514Z,96276.8
2018-09-12T03:08:59.350Z,96152.4
2018-09-12T03:13:56.976Z,96291.4
2018-09-12T03:18:54.371Z,96270.4
2018-09-12T03:23:52.667Z,96154.6
2018-09-12T03:28:49.935Z,96327.5
2018-09-12T03:33:47.397Z,96296
2018-09-12T03:38:44.746Z,96153.8
2018-09-12T03:43:42.324Z,96154.8
2018-09-12T03:48:39.842Z,96155.7
2018-09-12T03:53:37.372Z,96164.6
2018-09-12T03:58:35.216Z,96170.7
2018-09-12T04:03:32.967Z,96169.4
2018-09-12T04:08:30.415Z,96169.4
2018-09-12T04:13:27.930Z,96171.6
2018-09-12T04:18:26.559Z,96185.3
2018-09-12T04:23:23.636Z,96184.3
2018-09-12T04:28:21.586Z,96189.8
2018-09-12T04:33:18.719Z,96189.7
2018-09-12T04:38:16.280Z,96191.8
2018-09-12T04:43:13.898Z,96194.7
2018-09-12T04:48:11.090Z,96204
2018-09-12T04:53:08.975Z,96210.7
2018-09-12T04:58:07.362Z,96216.1
2018-09-12T05:03:04.609Z,96219.4
2018-09-12T05:08:02.235Z,96214.4
2018-09-12T05:13:00.196Z,96109
2018-09-12T05:17:57.752Z,96366.1
2018-09-12T05:22:54.982Z,96225
2018-09-12T05:27:52.626Z,96224.9
2018-09-12T05:32:50.135Z,96111.1
2018-09-12T05:37:47.648Z,96102.5
2018-09-12T05:42:44.743Z,95837.1
2018-09-12T05:47:42.106Z,96216.7
2018-09-12T05:52:39.757Z,96225
2018-09-12T05:57:37.324Z,96227.2
2018-09-12T06:02:35.275Z,96224.3
2018-09-12T06:07:32.480Z,96225.3
2018-09-12T06:12:30.051Z,96361
2018-09-12T06:17:27.305Z,96344.2
2018-09-12T06:22:24.757Z,96297.4
2018-09-12T06:27:22.732Z,96340.6
2018-09-12T06:32:20.265Z,96092.8
2018-09-12T06:37:17.612Z,96197.5
2018-09-12T06:42:15.704Z,96207.5
2018-09-12T06:47:13.530Z,96101.1
2018-09-12T06:52:11.775Z,96203.1
2018-09-12T06:57:09.217Z,96203
2018-09-12T07:02:07.018Z,96343.1
2018-09-12T07:07:04.240Z,96094
2018-09-12T07:12:01.988Z,96335.5
2018-09-12T07:16:59.980Z,96174.5
2018-09-12T07:21:57.387Z,96130.5
2018-09-12T07:26:55.162Z,96099.2
2018-09-12T07:31:53.138Z,96202.3
2018-09-12T07:36:51.226Z,96206.2
2018-09-12T07:41:48.829Z,96286.1
2018-09-12T07:46:46.354Z,96238.3
2018-09-12T07:51:44.345Z,96080.7
2018-09-12T07:56:42.350Z,96196.6
2018-09-12T08:01:40.471Z,96198.4
2018-09-12T08:06:38.403Z,96197
2018-09-12T08:11:36.158Z,96080.5
2018-09-12T08:16:33.749Z,96067.6
2018-09-12T08:21:31.666Z,96073.5
2018-09-12T08:26:30.058Z,96180.4
2018-09-12T08:31:27.672Z,96172
2018-09-12T08:36:25.355Z,96163.4
2018-09-12T08:41:22.802Z,96162.4
2018-09-12T08:46:21.043Z,96158.4
2018-09-12T08:51:18.589Z,96052.3
2018-09-12T08:56:16.228Z,95965.4
2018-09-12T09:01:14.017Z,96044.6
2018-09-12T09:06:11.806Z,96025.4
2018-09-12T09:11:09.393Z,96022.5
2018-09-12T09:16:07.044Z,96033.1
2018-09-12T09:21:05.060Z,96030.6
2018-09-12T09:26:02.703Z,96033.5
2018-09-12T09:31:00.666Z,96033.3
2018-09-12T09:35:58.290Z,95977.8
2018-09-12T09:40:55.747Z,96113.7
2018-09-12T09:45:53.360Z,95866.3
2018-09-12T09:50:51.253Z,96106.4
2018-09-12T09:55:49.130Z,96002.8
2018-09-12T10:00:47.157Z,95781.5
2018-09-12T10:05:44.919Z,95995.8
2018-09-12T10:10:42.689Z,96003.4
2018-09-12T10:15:40.205Z,95985.5
2018-09-12T10:20:37.978Z,96093.7
2018-09-12T10:25:35.700Z,95986.8
2018-09-12T10:30:33.382Z,96090.4
2018-09-12T10:35:31.125Z,96091.1
2018-09-12T10:40:29.348Z,96089.8
2018-09-12T10:45:28.028Z,96074.6
2018-09-12T10:50:26.210Z,96074.4
2018-09-12T10:55:24.760Z,96076.9
2018-09-12T11:00:22.349Z,96039.3
2018-09-12T11:05:20.644Z,95937.3
2018-09-12T11:10:18.731Z,96063
2018-09-12T11:15:16.378Z,96061.9
2018-09-12T11:20:14.252Z,95949.6
2018-09-12T11:25:12.226Z,96061.8
2018-09-12T11:30:09.958Z,96058.1
2018-09-12T11:35:07.396Z,95957.3
2018-09-12T11:40:04.863Z,96051.4
2018-09-12T11:45:02.841Z,95938.7
2018-09-12T11:50:00.955Z,96037
2018-09-12T11:54:58.477Z,96035
2018-09-12T11:59:56.264Z,96148.7
2018-09-12T12:04:53.940Z,96017.1
2018-09-12T12:09:51.296Z,96113
2018-09-12T12:14:49.221Z,96008.4
2018-09-12T12:19:47.593Z,96017.6
2018-09-12T12:24:45.142Z,96006.3
2018-09-12T12:29:42.965Z,96001.5
2018-09-12T12:34:40.978Z,95998.9
2018-09-12T12:39:38.601Z,95998.3
2018-09-12T12:44:36.176Z,96002.9
2018-09-12T12:49:34.206Z,96000.8
2018-09-12T12:54:32.333Z,95994.8
2018-09-12T12:59:31.241Z,95886.8
2018-09-12T13:04:28.855Z,95988.3
2018-09-12T13:09:26.470Z,95985.8
2018-09-12T13:14:24.296Z,95976
2018-09-12T13:19:22.417Z,95881.2
2018-09-12T13:24:20.432Z,95864.2
2018-09-12T13:29:17.839Z,95966.9
2018-09-12T13:34:15.461Z,95972.4
2018-09-12T13:39:12.603Z,95973.8
2018-09-12T13:44:09.946Z,95972.5
2018-09-12T13:49:07.751Z,95968.8
2018-09-12T13:54:05.061Z,95964.8
2018-09-12T13:59:03.074Z,95962.9
2018-09-12T14:04:00.970Z,95958.1
2018-09-12T14:08:58.342Z,95958.3
2018-09-12T14:13:55.892Z,95950.8
2018-09-12T14:18:53.402Z,95846.2
2018-09-12T14:23:50.855Z,95954.6
2018-09-12T14:28:48.444Z,95950.6
2018-09-12T14:33:46.273Z,95950.2
2018-09-12T14:38:44.313Z,95945
2018-09-12T14:43:41.861Z,95949.8
2018-09-12T14:48:39.429Z,95839.9
2018-09-12T14:53:37.020Z,95935.2
2018-09-12T14:58:34.871Z,95933.5
2018-09-12T15:03:32.363Z,95935.4
2018-09-12T15:08:30.806Z,94996.1
2018-09-12T15:13:27.981Z,95869.3
2018-09-12T15:18:25.673Z,95900.6
2018-09-12T15:23:23.578Z,95955.2
2018-09-12T15:28:21.188Z,96047.8
2018-09-12T15:33:18.738Z,95936.1
2018-09-12T15:38:16.210Z,95938.1
2018-09-12T15:43:13.923Z,96044.7
2018-09-12T15:48:11.970Z,95937.1
2018-09-12T15:53:09.412Z,95819.8
2018-09-12T15:58:07.653Z,95929
2018-09-12T16:03:04.760Z,95921.9
2018-09-12T16:08:02.590Z,95811.3
2018-09-12T16:12:59.688Z,95808.2
2018-09-12T16:17:57.212Z,95803.4
2018-09-12T16:22:54.959Z,95894
2018-09-12T16:27:52.787Z,95801.3
2018-09-12T16:32:50.601Z,95810.5
2018-09-12T16:37:48.276Z,95805
2018-09-12T16:42:45.845Z,95809.2
2018-09-12T16:47:43.189Z,95792.3
2018-09-12T16:52:41.225Z,95904.1
2018-09-12T16:57:38.868Z,95795.4
2018-09-12T17:02:36.605Z,95799.2
2018-09-12T17:07:34.229Z,95801.3
2018-09-12T17:12:31.979Z,95800.1
2018-09-12T17:17:29.551Z,95814.4
2018-09-12T17:22:27.227Z,95801.1
2018-09-12T17:27:24.825Z,95819.5
2018-09-12T17:32:22.561Z,95787.8
2018-09-12T17:37:20.041Z,95834.2
2018-09-12T17:42:17.877Z,95926.1
2018-09-12T17:47:15.692Z,95821.7
2018-09-12T17:52:12.933Z,95828
2018-09-12T17:57:10.770Z,95830.3
2018-09-12T18:02:08.502Z,95865.1
2018-09-12T18:07:07.528Z,95903.6
2018-09-12T18:12:04.477Z,95826.5
2018-09-12T18:17:02.115Z,95831.7
2018-09-12T18:22:00.040Z,95948.2
2018-09-12T18:26:57.551Z,95839.9
2018-09-12T18:31:55.173Z,95853.3
2018-09-12T18:36:52.743Z,95854
2018-09-12T18:41:50.221Z,95856.1
2018-09-12T18:46:47.740Z,95857.1
2018-09-12T18:51:45.212Z,95862.4
2018-09-12T18:56:43.535Z,95855.9
2018-09-12T19:01:41.204Z,95863
2018-09-12T19:06:39.222Z,95969.5
2018-09-12T19:11:36.157Z,95871
2018-09-12T19:16:33.761Z,95864.1
2018-09-12T19:21:31.321Z,95856.4
2018-09-12T19:26:29.433Z,95852.7
2018-09-12T19:31:26.777Z,95858.8
2018-09-12T19:36:24.398Z,95864.7
2018-09-12T19:41:21.798Z,95850.1
2018-09-12T19:46:19.375Z,95846.4
2018-09-12T19:51:16.836Z,95849.1
2018-09-12T19:56:14.479Z,95841.8
2018-09-12T20:01:12.328Z,95847.3
2018-09-12T20:06:09.686Z,95843.1
2018-09-12T20:11:06.768Z,95841.1
2018-09-12T20:16:04.373Z,95843.4
2018-09-12T20:21:01.870Z,95851.9
2018-09-12T20:26:00.872Z,95996.2
2018-09-12T20:30:58.065Z,95956.2
2018-09-12T20:35:56.565Z,95856
2018-09-12T20:40:53.591Z,95844.1
2018-09-12T20:45:50.924Z,95839.8
2018-09-12T20:50:48.297Z,95856.6
2018-09-12T20:55:45.886Z,95849.8
2018-09-12T21:00:43.337Z,95847.7
2018-09-12T21:05:45.102Z,95945.9
2018-09-12T21:10:42.798Z,95845.8
2018-09-12T21:15:40.509Z,95854.5
2018-09-12T21:20:37.930Z,95841
2018-09-12T21:25:35.521Z,95943.7
2018-09-12T21:30:33.246Z,95948.1
2018-09-12T21:35:30.396Z,95829.9
2018-09-12T21:40:28.101Z,95833.8
2018-09-12T21:45:26.048Z,95819.2
2018-09-12T21:50:23.865Z,95815.1
2018-09-12T21:55:21.961Z,95818
2018-09-12T22:00:19.326Z,95821.7
2018-09-12T22:05:17.495Z,95933.9
2018-09-12T22:10:15.037Z,95829.4
2018-09-12T22:15:12.788Z,95824.6
2018-09-12T22:20:10.885Z,95930.5
2018-09-12T22:25:08.667Z,95824.5
2018-09-12T22:30:05.861Z,95820.8
2018-09-12T22:35:03.969Z,95422.4
2018-09-12T22:40:01.503Z,95821.4
2018-09-12T22:44:58.944Z,95772.8
2018-09-12T22:49:57.043Z,95923.1
2018-09-12T22:54:54.857Z,95816
2018-09-12T22:59:52.989Z,95908.3
2018-09-12T23:04:50.928Z,95797.2
2018-09-12T23:09:48.393Z,95802.1
2018-09-12T23:14:46.074Z,95800.4
2018-09-12T23:19:44.205Z,95908.8
2018-09-12T23:24:43.123Z,95899.2
2018-09-12T23:29:40.683Z,95784.9
2018-09-12T23:34:39.084Z,95900.4
2018-09-12T23:39:36.632Z,95787.1
2018-09-12T23:44:34.420Z,95788.3
2018-09-12T23:49:32.057Z,95790.3
2018-09-12T23:54:31.154Z,95889.8
2018-09-12T23:59:28.576Z,95769.8
